KMIA/MIA METAR and TAF weather

Enter ICAO airport designator
Station Type Date Time Source
KMIA METAR 2020/11/25 22:53 UTC NOAA

KMIA 252253Z 09012KT 10SM FEW040 BKN070 25/18 A3015 RMK AO2 SLP209 T02500183 $


Station Type Date Time Source
KMIA Decoded METAR 2020/11/25 22:53 UTC NOAA

MIAMI INTERNATIONAL AIRPORT , FL, United States (KMIA) 25-47N 080-19W 8M
Nov 25, 2020 - 05:53 PM EST / 2020.11.25 2253 UTC
Wind: from the E (090 degrees) at 14 MPH (12 KT):0
Visibility: 10 mile(s):0
Sky conditions: mostly cloudy
Temperature: 77.0 F (25.0 C)
Dew Point: 64.9 F (18.3 C)
Relative Humidity: 66%
Pressure (altimeter): 30.15 in. Hg (1020 hPa)
ob: KMIA 252253Z 09012KT 10SM FEW040 BKN070 25/18 A3015 RMK AO2 SLP209 T02500183
cycle: 23

Station Type Date Time Source
KMIA TAF 2020/11/25 21:03 UTC NOAA

TAF
AMD KMIA 252100Z 2521/2624 09015KT P6SM SCT030 BKN050
FM260300 10007KT P6SM FEW035
FM261400 10010KT P6SM SCT035

Example: see airport list